createdAt,value
2023-01-31T00:02:17.284Z,1.00
2023-01-31T00:05:22.990Z,0.90
2023-01-31T00:08:37.581Z,1.45
2023-01-31T00:11:49.994Z,1.52
2023-01-31T00:14:54.388Z,1.20
2023-01-31T00:17:58.756Z,1.55
2023-01-31T00:21:06.892Z,0.95
2023-01-31T00:24:11.176Z,0.85
2023-01-31T00:27:16.254Z,1.50
2023-01-31T00:30:19.848Z,1.48
2023-01-31T00:33:24.409Z,1.42
2023-01-31T00:36:29.879Z,1.35
2023-01-31T00:39:33.445Z,1.00
2023-01-31T00:42:40.256Z,1.17
2023-01-31T00:45:46.245Z,1.40
2023-01-31T00:48:50.338Z,1.25
2023-01-31T00:51:53.932Z,0.95
2023-01-31T00:54:57.324Z,1.00
2023-01-31T00:58:02.808Z,1.50
2023-01-31T01:01:10.218Z,1.40
2023-01-31T01:04:14.593Z,1.10
2023-01-31T01:07:18.808Z,1.48
2023-01-31T01:10:22.216Z,1.10
2023-01-31T01:13:29.329Z,1.10
2023-01-31T01:16:37.287Z,1.25
2023-01-31T01:19:43.657Z,1.42
2023-01-31T01:22:47.120Z,0.90
2023-01-31T01:25:51.260Z,1.35
2023-01-31T01:28:57.805Z,1.20
2023-01-31T01:32:03.537Z,1.30
2023-01-31T01:35:09.986Z,1.02
2023-01-31T01:38:14.334Z,0.75
2023-01-31T01:41:18.342Z,0.95
2023-01-31T01:44:41.085Z,0.88
2023-01-31T01:47:50.232Z,1.17
2023-01-31T01:50:54.346Z,1.15
2023-01-31T01:53:59.490Z,1.17
2023-01-31T01:57:04.558Z,1.25
2023-01-31T02:00:11.466Z,1.05
2023-01-31T02:03:22.746Z,1.73
2023-01-31T02:06:27.013Z,0.85
2023-01-31T02:09:34.900Z,1.00
2023-01-31T02:12:43.756Z,1.42
2023-01-31T02:15:47.880Z,1.45
2023-01-31T02:18:53.927Z,0.90
2023-01-31T02:22:08.973Z,1.00
2023-01-31T02:25:26.774Z,1.23
2023-01-31T02:28:42.010Z,1.23
2023-01-31T02:32:01.564Z,1.25
2023-01-31T02:35:11.722Z,1.08
2023-01-31T02:38:21.923Z,1.15
2023-01-31T02:41:35.614Z,1.75
2023-01-31T02:45:00.202Z,1.23
2023-01-31T02:48:11.354Z,0.80
2023-01-31T02:51:24.118Z,1.02
2023-01-31T02:54:50.199Z,1.23
2023-01-31T02:57:54.268Z,1.83
2023-01-31T03:00:59.581Z,1.25
2023-01-31T03:04:05.714Z,1.90
2023-01-31T03:07:15.649Z,1.27
2023-01-31T03:10:27.169Z,1.27
2023-01-31T03:13:46.741Z,1.75
2023-01-31T03:17:12.387Z,2.13
2023-01-31T03:20:20.779Z,1.23
2023-01-31T03:23:31.072Z,1.20
2023-01-31T03:26:36.806Z,1.55
2023-01-31T03:29:45.885Z,1.63
2023-01-31T03:32:56.054Z,2.28
2023-01-31T03:36:04.839Z,1.90
2023-01-31T03:39:15.469Z,1.20
2023-01-31T03:42:21.929Z,1.13
2023-01-31T03:45:29.596Z,1.70
2023-01-31T03:48:39.010Z,1.23
2023-01-31T03:51:47.667Z,1.13
2023-01-31T03:54:55.038Z,1.48
2023-01-31T03:58:00.742Z,0.98
2023-01-31T04:01:11.086Z,1.42
2023-01-31T04:04:18.239Z,1.27
2023-01-31T04:07:26.007Z,1.10
2023-01-31T04:10:33.487Z,0.95
2023-01-31T04:13:37.204Z,0.82
2023-01-31T04:16:44.060Z,1.35
2023-01-31T04:19:48.591Z,1.48
2023-01-31T04:22:52.367Z,1.13
2023-01-31T04:25:57.971Z,1.38
2023-01-31T04:29:01.647Z,1.05
2023-01-31T04:32:05.464Z,1.30
2023-01-31T04:35:12.520Z,1.38
2023-01-31T04:38:19.966Z,0.88
2023-01-31T04:41:25.422Z,1.40
2023-01-31T04:44:33.239Z,0.90
2023-01-31T04:47:38.493Z,1.10
2023-01-31T04:50:43.134Z,1.52
2023-01-31T04:53:48.611Z,1.42
2023-01-31T04:56:53.466Z,1.15
2023-01-31T04:59:58.093Z,1.08
2023-01-31T05:03:02.366Z,1.30
2023-01-31T05:06:12.848Z,1.40
2023-01-31T05:09:24.937Z,1.65
2023-01-31T05:12:31.885Z,1.27
2023-01-31T05:15:36.222Z,1.35
2023-01-31T05:18:40.942Z,1.38
2023-01-31T05:21:59.165Z,1.38
2023-01-31T05:25:14.198Z,1.40
2023-01-31T05:28:26.575Z,1.98
2023-01-31T05:31:36.618Z,1.63
2023-01-31T05:34:47.675Z,1.45
2023-01-31T05:37:58.671Z,1.05
2023-01-31T05:41:09.561Z,0.93
2023-01-31T05:44:22.612Z,1.45
2023-01-31T05:47:35.697Z,1.40
2023-01-31T05:50:51.371Z,1.85
2023-01-31T05:54:02.992Z,1.60
2023-01-31T05:57:14.571Z,1.33
2023-01-31T06:00:27.139Z,1.60
2023-01-31T06:03:37.676Z,1.13
2023-01-31T06:06:47.636Z,1.25
2023-01-31T06:09:57.995Z,1.00
2023-01-31T06:13:12.931Z,1.23
2023-01-31T06:16:31.357Z,1.60
2023-01-31T06:19:45.237Z,1.00
2023-01-31T06:23:01.105Z,1.80
2023-01-31T06:26:14.711Z,1.08
2023-01-31T06:29:24.976Z,0.93
2023-01-31T06:32:36.561Z,1.05
2023-01-31T06:35:50.628Z,1.13
2023-01-31T06:39:00.729Z,1.45
2023-01-31T06:42:10.730Z,1.42
2023-01-31T06:45:20.922Z,1.50
2023-01-31T06:48:35.872Z,2.22
2023-01-31T06:51:46.587Z,1.23
2023-01-31T06:54:56.622Z,1.23
2023-01-31T06:58:07.541Z,1.67
2023-01-31T07:01:24.275Z,1.33
2023-01-31T07:04:36.351Z,1.27
2023-01-31T07:07:48.504Z,1.50
2023-01-31T07:11:02.594Z,1.10
2023-01-31T07:14:13.780Z,1.23
2023-01-31T07:17:24.680Z,1.50
2023-01-31T07:20:41.156Z,1.90
2023-01-31T07:23:55.916Z,1.20
2023-01-31T07:27:06.447Z,1.27
2023-01-31T07:30:20.765Z,1.50
2023-01-31T07:33:31.484Z,1.48
2023-01-31T07:36:46.084Z,1.17
2023-01-31T07:39:59.877Z,1.35
2023-01-31T07:43:10.387Z,1.33
2023-01-31T07:46:21.795Z,1.45
2023-01-31T07:49:34.180Z,1.92
2023-01-31T07:52:48.166Z,1.45
2023-01-31T07:56:11.187Z,2.13
2023-01-31T07:59:24.627Z,1.52
2023-01-31T08:03:02.108Z,1.70
2023-01-31T08:06:20.029Z,2.03
2023-01-31T08:09:39.038Z,1.83
2023-01-31T08:12:52.310Z,1.70
2023-01-31T08:16:07.465Z,1.95
2023-01-31T08:19:18.443Z,2.45
2023-01-31T08:22:33.808Z,1.80
2023-01-31T08:25:51.327Z,1.42
2023-01-31T08:29:01.915Z,1.83
2023-01-31T08:32:17.562Z,1.83
2023-01-31T08:35:30.279Z,1.88
2023-01-31T08:38:45.799Z,2.05
2023-01-31T08:42:02.963Z,2.03
2023-01-31T08:45:16.267Z,2.28
2023-01-31T08:48:37.484Z,1.83
2023-01-31T08:57:16.817Z,1.98
2023-01-31T09:18:42.314Z,2.08
2023-01-31T09:22:14.402Z,2.20
2023-01-31T09:30:26.580Z,1.90
2023-01-31T09:37:49.433Z,2.50
2023-01-31T09:41:36.786Z,2.42
2023-01-31T09:45:20.943Z,2.40
2023-01-31T09:49:13.989Z,2.35
2023-01-31T09:52:46.677Z,2.58
2023-01-31T09:56:29.437Z,2.35
2023-01-31T10:00:09.862Z,2.40
2023-01-31T10:04:05.606Z,1.58
2023-01-31T10:08:02.307Z,1.80
2023-01-31T10:12:21.819Z,2.33
2023-01-31T10:16:57.712Z,2.03
2023-01-31T10:20:56.535Z,2.20
2023-01-31T10:25:57.532Z,2.85
2023-01-31T10:29:17.986Z,1.75
2023-01-31T10:32:30.299Z,1.70
2023-01-31T10:35:44.171Z,2.15
2023-01-31T10:39:10.383Z,2.25
2023-01-31T10:42:25.186Z,2.30
2023-01-31T10:45:51.415Z,1.55
2023-01-31T10:49:04.813Z,2.08
2023-01-31T10:52:29.092Z,1.90
2023-01-31T10:55:47.543Z,2.35
2023-01-31T10:59:00.469Z,2.40
2023-01-31T11:02:34.207Z,1.77
2023-01-31T11:16:50.001Z,2.28
2023-01-31T11:20:01.415Z,2.00
2023-01-31T11:23:29.155Z,2.10
2023-01-31T11:26:41.789Z,2.20
2023-01-31T11:30:30.783Z,2.60
2023-01-31T11:34:39.781Z,2.60
2023-01-31T11:37:56.745Z,2.15
2023-01-31T11:46:11.846Z,2.22
2023-01-31T11:49:43.427Z,1.55
2023-01-31T11:53:28.594Z,1.70
2023-01-31T11:56:40.671Z,2.17
2023-01-31T11:59:51.912Z,1.75
2023-01-31T12:03:08.991Z,1.50
2023-01-31T12:06:32.981Z,1.38
2023-01-31T12:09:44.153Z,1.40
2023-01-31T12:12:57.568Z,1.48
2023-01-31T12:16:13.043Z,1.60
2023-01-31T12:20:26.260Z,1.42
2023-01-31T12:23:55.426Z,1.20
2023-01-31T12:27:54.859Z,1.33
2023-01-31T12:31:21.803Z,1.10
2023-01-31T12:35:43.092Z,1.20
2023-01-31T12:39:39.908Z,0.98
2023-01-31T12:43:34.954Z,0.82
2023-01-31T12:47:19.265Z,0.90
2023-01-31T12:50:33.600Z,0.90
2023-01-31T12:54:41.578Z,0.90
2023-01-31T12:59:40.692Z,0.73
2023-01-31T13:03:54.115Z,0.98
2023-01-31T13:07:05.615Z,0.80
2023-01-31T13:10:22.565Z,0.70
2023-01-31T13:13:37.810Z,0.80
2023-01-31T13:16:49.221Z,0.80
2023-01-31T13:20:41.203Z,0.60
2023-01-31T13:24:27.831Z,0.77
2023-01-31T13:27:45.268Z,0.57
2023-01-31T13:30:57.761Z,0.70
2023-01-31T13:37:39.335Z,0.65
2023-01-31T13:40:52.515Z,0.50
2023-01-31T13:44:47.846Z,0.70
2023-01-31T13:48:08.900Z,0.55
2023-01-31T13:51:23.059Z,0.70
2023-01-31T13:55:27.647Z,0.70
2023-01-31T13:58:38.181Z,0.70
2023-01-31T14:01:48.949Z,0.70
2023-01-31T14:05:09.184Z,0.80
2023-01-31T14:08:37.421Z,0.80
2023-01-31T14:12:52.678Z,0.60
2023-01-31T14:16:03.109Z,0.95
2023-01-31T14:24:07.426Z,0.75
2023-01-31T14:28:53.729Z,0.88
2023-01-31T14:32:14.778Z,0.80
2023-01-31T14:35:31.891Z,0.80
2023-01-31T14:50:39.053Z,0.90
2023-01-31T14:58:22.375Z,1.02
2023-01-31T15:01:39.568Z,0.77
2023-01-31T15:05:23.155Z,1.13
2023-01-31T15:09:21.334Z,1.40
2023-01-31T15:13:18.646Z,1.05
2023-01-31T15:17:31.775Z,1.30
2023-01-31T15:22:05.487Z,1.05
2023-01-31T15:26:17.261Z,1.88
2023-01-31T15:29:51.819Z,1.00
2023-01-31T15:33:37.193Z,1.63
2023-01-31T15:37:51.488Z,1.10
2023-01-31T15:45:32.784Z,0.95
2023-01-31T15:48:46.064Z,1.50
2023-01-31T15:52:50.062Z,1.13
2023-01-31T15:56:08.038Z,1.73
2023-01-31T15:59:27.944Z,1.38
2023-01-31T16:02:39.058Z,1.85
2023-01-31T16:05:54.614Z,1.50
2023-01-31T16:09:11.184Z,1.95
2023-01-31T16:12:24.596Z,1.15
2023-01-31T16:16:04.340Z,1.55
2023-01-31T16:19:59.291Z,1.10
2023-01-31T16:23:31.649Z,2.80
2023-01-31T16:26:52.469Z,1.73
2023-01-31T16:30:57.493Z,2.08
2023-01-31T16:34:20.713Z,1.70
2023-01-31T16:37:39.447Z,1.17
2023-01-31T16:40:50.886Z,0.85
2023-01-31T16:44:43.625Z,1.00
2023-01-31T16:47:53.605Z,0.52
2023-01-31T16:54:46.991Z,1.17
2023-01-31T16:57:56.569Z,1.20
2023-01-31T17:01:48.177Z,0.80
2023-01-31T17:04:58.777Z,1.10
2023-01-31T17:08:20.383Z,1.20
2023-01-31T17:11:42.113Z,1.17
2023-01-31T17:15:03.072Z,1.25
2023-01-31T17:18:14.003Z,1.25
2023-01-31T17:47:29.497Z,1.70
2023-01-31T17:50:52.358Z,1.38
2023-01-31T17:54:29.282Z,1.52
2023-01-31T18:11:59.157Z,2.33
2023-01-31T18:15:10.479Z,2.00
2023-01-31T18:18:50.652Z,1.90
2023-01-31T18:22:29.931Z,1.75
2023-01-31T18:29:46.627Z,2.33
2023-01-31T18:33:14.926Z,1.90
2023-01-31T18:36:50.411Z,2.00
2023-01-31T18:43:27.590Z,1.98
2023-01-31T18:51:30.353Z,2.15
2023-01-31T18:55:13.593Z,1.88
2023-01-31T18:59:20.011Z,1.25
2023-01-31T19:02:30.833Z,2.33
2023-01-31T19:05:40.832Z,2.20
2023-01-31T19:08:53.856Z,1.75
2023-01-31T19:12:04.186Z,1.75
2023-01-31T19:15:45.182Z,2.35
2023-01-31T19:18:57.884Z,1.77
2023-01-31T19:22:08.949Z,1.65
2023-01-31T19:25:28.187Z,2.92
2023-01-31T19:28:45.482Z,2.70
2023-01-31T19:32:01.737Z,2.22
2023-01-31T19:40:23.203Z,2.28
2023-01-31T19:48:24.313Z,1.73
2023-01-31T19:51:50.846Z,2.40
2023-01-31T19:55:06.385Z,3.05
2023-01-31T20:20:48.494Z,1.98
2023-01-31T20:25:00.259Z,1.55
2023-01-31T20:28:46.479Z,2.20
2023-01-31T20:32:00.644Z,1.55
2023-01-31T20:35:36.588Z,2.58
2023-01-31T20:38:57.588Z,2.30
2023-01-31T20:47:41.506Z,2.25
2023-01-31T20:54:51.872Z,1.45
2023-01-31T21:02:13.461Z,3.20
2023-01-31T21:18:43.884Z,3.15
2023-01-31T21:27:27.453Z,2.42
2023-01-31T21:30:39.854Z,2.42
2023-01-31T21:33:50.576Z,1.95
2023-01-31T21:37:00.752Z,2.67
